Rodanthe, North Carolina
Current Conditions -  °F | °C
As of 1:56 PM on Friday 28 Nov 2014 (Local Time) from K2DP Reporting Station
Clear Clear  
Wind Chill: 38°   Ceiling: Unl
Heat Index: 43°   Visibility: 10mi
Dew Point: 24°   Wind: 9mph
Humidity: 47%   Direction: 330°NNW
Pressure: 30.27"   Gusts: 20mph
Location:  35.59°N, 75.47°W
Report Text: K2DP 281856Z AUTO 33008G17KT 10SM CLR 06/M04 A3027 RMK AO2 SLPNO T00631042
Loading
Personal Weather Stations






























Interactive Weather Map New forecast layout! Learn more

10-Day Weather Forecast

Advertisements
Track Severe Weather on mobile